Avisos AEMET Campiña SevillanaSin Avisos+ INFO
Sevilla, Andalucía, España
Idioma: es English Français Deutsch Italiano Português Español
 

Informes METAR

 

LEZL - Sevilla, Spain
Distancia de la estación: ENE 8km
Actualización: 28/11/2022 22:30
Despejado
Despejado
 Viento de NNE
Viento: NNE 9 km/h
Temperatura: 11°C
Rocío: 4°C
Humedad: 62%
Barómetro: 1025 hPa
Resumen: Despejado
Visibilidad: mayor de 10 km
2022/11/28 21:30 LEZL 282130Z 02005KT 350V050 CAVOK 11/04 Q1025 NOSIG
LEMO - Morón, Spain
Distancia de la estación: SE 43km
Actualización: 28/11/2022 23:00
Despejado
Despejado
 Viento de calm
Viento: Calma
Temperatura: 7°C
Rocío: 3°C
Humedad: 76%
Barómetro: 1024 hPa
Resumen: Despejado
Visibilidad: mayor de 10 km
2022/11/28 22:00 LEMO 282200Z 00000KT CAVOK 07/03 Q1024 NOSIG
LEJR - Jeréz, Spain
Distancia de la estación: S 71km
Actualización: 28/11/2022 23:00
Despejado
Despejado
 Viento de N
Viento: N 13 km/h
Temperatura: 10°C
Sensación térmica: 8°C
Rocío: 4°C
Humedad: 67%
Barómetro: 1024 hPa
Resumen: Despejado
Visibilidad: mayor de 10 km
2022/11/28 22:00 LEJR 282200Z 35007KT CAVOK 10/04 Q1024
 
LERT - Rota, Spain
Distancia de la estación: SSO 89km
Actualización: 28/11/2022 22:30
Despejado
Despejado
 Viento de NNE
Viento: NNE 9 km/h
Temperatura: 11°C
Rocío: 4°C
Humedad: 62%
Barómetro: 1024 hPa
Resumen: Despejado
Visibilidad: mayor de 10 km
2022/11/28 21:30 LERT 282130Z 02005KT CAVOK 11/04 Q1024 NOSIG
LEMG - Málaga, Spain
Distancia de la estación: ESE 157km
Actualización: 28/11/2022 22:30
Despejado
Despejado
 Viento de ONO
Viento: ONO 22 km/h
Temperatura: 14°C
Rocío: 2°C
Humedad: 44%
Barómetro: 1022 hPa
Resumen: Despejado
Visibilidad: mayor de 10 km
2022/11/28 21:30 LEMG 282130Z 29012KT 260V320 CAVOK 14/02 Q1022 NOSIG
LEBA - Córdoba, Spain
Distancia de la estación: ENE 115km
Actualización: 28/11/2022 22:30
Despejado
Despejado
 Viento de calm
Viento: Calma
Temperatura: 6°C
Rocío: 4°C
Humedad: 87%
Barómetro: 1024 hPa
Resumen: Despejado
Visibilidad: mayor de 10 km
2022/11/28 21:30 LEBA 282130Z AUTO 00000KT CAVOK 06/04 Q1024
 
LEGR - Granada, Spain
Distancia de la estación: E 198km
Actualización: 28/11/2022 22:30
Despejado
Despejado
 Viento de NNO
Viento: NNO 7 km/h
Temperatura: 9°C
Sensación térmica: 8°C
Rocío: 1°C
Humedad: 58%
Barómetro: 1024 hPa
Resumen: Despejado
Visibilidad: mayor de 10 km
2022/11/28 21:30 LEGR 282130Z 34004KT 320V030 CAVOK 09/01 Q1024
LEAM - Almería, Spain
Distancia de la estación: E 326km
Actualización: 28/11/2022 22:30
Despejado
Despejado
 Viento de NO
Viento: NO 13 km/h
Temperatura: 15°C
Rocío: -1°C
Humedad: 34%
Barómetro: 1022 hPa
Resumen: Despejado
Visibilidad: mayor de 10 km
2022/11/28 21:30 LEAM 282130Z 31007KT 280V340 CAVOK 15/M01 Q1022
LEMD - Madrid/Barajas, Spain
Distancia de la estación: NNE 402km
Actualización: 28/11/2022 22:30
Despejado
Despejado
 Viento de SO
Viento: SO 4 km/h
Temperatura: 7°C
Rocío: 2°C
Humedad: 71%
Barómetro: 1024 hPa
Resumen: Despejado
Visibilidad: mayor de 10 km
2022/11/28 21:30 LEMD 282130Z 23002KT CAVOK 07/02 Q1024 NOSIG
 
LEVD - Valladolid, Spain
Distancia de la estación: N 492km
Actualización: 28/11/2022 22:30
Despejado
Despejado
 Viento de O
Viento: O 9 km/h
Temperatura: 2°C
Sensación térmica: -1°C
Rocío: 0°C
Humedad: 87%
Barómetro: 1024 hPa
Resumen: Despejado
Visibilidad: mayor de 10 km
2022/11/28 21:30 LEVD 282130Z AUTO 27005KT CAVOK 02/00 Q1024
LEBL - Barcelona, Spain
Distancia de la estación: NE 816km
Actualización: 28/11/2022 22:30
Poco nuboso
Poco nuboso
 Viento de NNO
Viento: NNO 7 km/h
Temperatura: 10°C
Sensación térmica: 9°C
Rocío: 5°C
Humedad: 71%
Barómetro: 1017 hPa
Nubes: Poco nuboso
Visibilidad: 10 km
Detalles de las nubes: Poco nuboso 762 m
2022/11/28 21:30 LEBL 282130Z 33004KT 310V010 9999 FEW025 10/05 Q1017 NOSIG
LEVC - Valencia, Spain
Distancia de la estación: ENE 535km
Actualización: 28/11/2022 22:30
Despejado
Despejado
 Viento de ONO
Viento: ONO 11 km/h
Temperatura: 12°C
Rocío: 1°C
Humedad: 47%
Barómetro: 1021 hPa
Resumen: Despejado
Visibilidad: mayor de 10 km
2022/11/28 21:30 LEVC 282130Z 29006KT 250V320 CAVOK 12/01 Q1021 NOSIG